Time;durP1;ratioP1;P1;durP2;ratioP2;P2;SDS_P1;SDS_P2;PMS_P1;PMS_P2;Temp;Humidity;BMP_temperature;BMP_pressure;BME280_temperature;BME280_humidity;BME280_pressure;Samples;Min_cycle;Max_cycle;Signal;HPM_P1;HPM_P2
2022/03/11 00:00:32;;;;;;;9.23;7.20;;;5.60;98.90;;;;;;4928201;29;20434;-89
2022/03/11 00:02:58;;;;;;;12.00;7.83;;;6.10;97.40;;;;;;4909897;29;20542;-88
2022/03/11 00:05:25;;;;;;;7.97;7.27;;;4.50;95.10;;;;;;4940922;29;20402;-89
2022/03/11 00:07:51;;;;;;;11.95;7.95;;;6.40;96.60;;;;;;4909574;29;20222;-89
2022/03/11 00:10:19;;;;;;;8.90;8.00;;;5.10;93.00;;;;;;4934795;29;20211;-89
2022/03/11 00:12:47;;;;;;;10.73;9.10;;;6.10;95.00;;;;;;4933008;29;20423;-89
2022/03/11 00:15:12;;;;;;;9.87;7.63;;;4.40;95.00;;;;;;4900443;29;20556;-90
2022/03/11 00:17:38;;;;;;;7.97;7.27;;;6.80;94.90;;;;;;4905068;29;20497;-89
2022/03/11 00:20:06;;;;;;;8.30;7.50;;;6.10;91.10;;;;;;4905004;29;20430;-90
2022/03/11 00:22:31;;;;;;;5.67;5.27;;;6.70;85.00;;;;;;4904654;29;20556;-88
2022/03/11 00:24:57;;;;;;;7.10;6.40;;;5.40;77.60;;;;;;4908741;29;20431;-89
2022/03/11 00:27:23;;;;;;;8.33;7.53;;;8.80;77.60;;;;;;4902036;29;20283;-89
2022/03/11 00:29:54;;;;;;;9.57;6.53;;;6.60;74.10;;;;;;4906199;29;20187;-89
2022/03/11 00:32:22;;;;;;;7.60;6.87;;;11.10;67.10;;;;;;4907773;29;20255;-89
2022/03/11 00:34:51;;;;;;;7.30;6.60;;;10.50;58.50;;;;;;4902439;29;20423;-89
2022/03/11 00:37:17;;;;;;;7.83;7.00;;;8.20;56.50;;;;;;4909888;29;20806;-90
2022/03/11 00:39:42;;;;;;;7.43;6.73;;;7.80;56.50;;;;;;4926029;29;20870;-88
2022/03/11 00:42:08;;;;;;;7.77;7.07;;;10.60;56.50;;;;;;4902406;29;20191;-88
2022/03/11 00:44:35;;;;;;;7.07;6.40;;;8.20;55.00;;;;;;4909780;29;20242;-89
2022/03/11 00:47:01;;;;;;;7.03;6.43;;;10.90;55.80;;;;;;4919880;29;20214;-88
2022/03/11 00:49:29;;;;;;;10.80;7.90;;;8.70;54.40;;;;;;4930540;29;20490;-90
2022/03/11 00:54:48;;;;;;;7.93;7.33;;;8.40;51.50;;;;;;4976757;28;20478;-90
2022/03/11 00:57:16;;;;;;;8.83;7.37;;;8.40;50.70;;;;;;4951731;29;20530;-90
2022/03/11 00:59:42;;;;;;;7.47;6.63;;;8.60;50.30;;;;;;4936447;29;20187;-90
2022/03/11 01:02:07;;;;;;;7.27;6.73;;;8.70;50.10;;;;;;4951829;29;20451;-91
2022/03/11 01:04:33;;;;;;;7.87;6.90;;;9.50;50.10;;;;;;4936702;29;20204;-92
2022/03/11 01:06:58;;;;;;;7.60;7.00;;;8.60;49.70;;;;;;4936664;29;20557;-92
2022/03/11 01:09:24;;;;;;;7.40;6.70;;;8.60;50.60;;;;;;4935892;29;20184;-92
2022/03/11 01:11:50;;;;;;;8.37;7.63;;;8.40;50.70;;;;;;4954370;28;20200;-91
2022/03/11 01:14:16;;;;;;;7.50;6.77;;;8.30;50.30;;;;;;4935461;29;20183;-92
2022/03/11 01:16:42;;;;;;;10.80;7.37;;;8.20;50.00;;;;;;4954446;28;20982;-91
2022/03/11 01:19:09;;;;;;;7.90;7.30;;;8.10;51.10;;;;;;4935648;29;20186;-92
2022/03/11 01:21:50;;;;;;;8.10;7.33;;;8.10;50.40;;;;;;4957578;28;20193;-90
2022/03/11 01:24:21;;;;;;;7.77;6.50;;;8.20;50.70;;;;;;4930680;29;20502;-93
2022/03/11 01:26:46;;;;;;;7.87;7.17;;;8.10;51.00;;;;;;4942571;29;20506;-92
2022/03/11 01:29:15;;;;;;;10.07;7.10;;;8.40;53.30;;;;;;4942061;29;20438;-91
2022/03/11 01:31:42;;;;;;;8.60;7.70;;;8.70;54.70;;;;;;4957901;28;20269;-91
2022/03/11 01:34:09;;;;;;;7.63;6.97;;;8.70;54.20;;;;;;4935600;29;20593;-92
2022/03/11 01:36:34;;;;;;;9.83;8.37;;;7.60;51.90;;;;;;4950925;28;20465;-92
2022/03/11 01:39:00;;;;;;;7.40;6.80;;;7.10;51.50;;;;;;4939686;29;20446;-92
2022/03/11 01:41:26;;;;;;;8.63;7.27;;;7.50;53.30;;;;;;4937213;29;20198;-92
2022/03/11 01:44:08;;;;;;;7.90;7.10;;;7.50;52.50;;;;;;4969571;28;20257;-92
2022/03/11 01:46:34;;;;;;;7.97;6.90;;;7.50;52.80;;;;;;4943803;29;20233;-91
2022/03/11 01:49:02;;;;;;;7.30;6.60;;;7.40;52.90;;;;;;4957696;28;20790;-92
2022/03/11 01:51:30;;;;;;;7.67;6.73;;;7.20;53.30;;;;;;4950215;29;20478;-90
2022/03/11 01:53:56;;;;;;;8.10;7.30;;;7.20;53.40;;;;;;4932049;29;20930;-91
2022/03/11 01:56:23;;;;;;;8.53;7.33;;;7.20;53.80;;;;;;4937472;29;20458;-90
2022/03/11 01:58:56;;;;;;;11.40;6.90;;;7.10;53.90;;;;;;4950947;29;20894;-91
2022/03/11 02:01:23;;;;;;;11.00;7.20;;;7.20;54.00;;;;;;4928033;29;20792;-91
2022/03/11 02:03:49;;;;;;;9.10;7.35;;;7.10;54.50;;;;;;4936627;29;21186;-91
2022/03/11 02:06:15;;;;;;;7.73;7.07;;;7.00;54.20;;;;;;4922270;29;20306;-90
2022/03/11 02:08:43;;;;;;;9.17;8.33;;;7.00;54.60;;;;;;4923762;29;20427;-91
2022/03/11 02:11:09;;;;;;;8.00;7.20;;;7.10;53.70;;;;;;4929349;29;20474;-90
2022/03/11 02:13:53;;;;;;;7.90;7.20;;;7.10;54.00;;;;;;4926581;29;20493;-91
2022/03/11 02:16:30;;;;;;;8.70;6.90;;;7.10;54.50;;;;;;4935242;29;20500;-91
2022/03/11 02:18:58;;;;;;;8.13;7.17;;;6.00;53.80;;;;;;4924522;29;20456;-91
2022/03/11 02:21:25;;;;;;;8.37;7.60;;;7.10;54.60;;;;;;4927607;29;20493;-92
2022/03/11 02:23:59;;;;;;;7.40;6.70;;;7.00;54.70;;;;;;4929029;29;20415;-91
2022/03/11 02:26:27;;;;;;;7.40;6.60;;;7.00;55.10;;;;;;4948329;29;20491;-91
2022/03/11 02:28:54;;;;;;;8.70;8.00;;;7.00;55.30;;;;;;4920852;29;20541;-91
2022/03/11 02:31:23;;;;;;;9.93;7.47;;;6.70;56.30;;;;;;4932954;29;20892;-91
2022/03/11 02:33:49;;;;;;;7.30;6.50;;;6.00;55.30;;;;;;4929866;29;20462;-91
2022/03/11 02:36:15;;;;;;;9.70;8.70;;;6.70;55.30;;;;;;4935530;29;20525;-91
2022/03/11 02:38:40;;;;;;;9.43;7.40;;;6.90;55.50;;;;;;4942708;29;20455;-91
2022/03/11 02:41:07;;;;;;;8.70;7.63;;;9.10;57.20;;;;;;4936900;29;20250;-91
2022/03/11 02:43:33;;;;;;;8.17;7.13;;;6.80;55.80;;;;;;4927826;29;20195;-91
2022/03/11 02:45:59;;;;;;;7.73;7.03;;;6.80;55.80;;;;;;4925631;29;20962;-91
2022/03/11 02:48:25;;;;;;;8.23;7.43;;;6.80;55.90;;;;;;4918284;29;20450;-91
2022/03/11 02:50:51;;;;;;;10.32;8.15;;;6.80;56.20;;;;;;4929981;29;20451;-92
2022/03/11 02:53:17;;;;;;;7.27;6.67;;;6.70;56.10;;;;;;4935363;29;20218;-91
2022/03/11 02:55:43;;;;;;;7.90;7.30;;;6.80;55.90;;;;;;4919386;29;20195;-91
2022/03/11 02:58:09;;;;;;;12.73;7.90;;;6.80;55.70;;;;;;4929123;29;20229;-91
2022/03/11 03:00:34;;;;;;;8.87;7.87;;;6.80;56.20;;;;;;4918480;29;20463;-91
2022/03/11 03:03:00;;;;;;;7.87;7.03;;;6.80;55.80;;;;;;4953360;29;20513;-91
2022/03/11 03:05:25;;;;;;;8.00;7.20;;;6.30;55.00;;;;;;4938315;29;20203;-91
2022/03/11 03:07:51;;;;;;;8.77;8.00;;;7.00;56.20;;;;;;4937052;29;20237;-91
2022/03/11 03:10:17;;;;;;;9.30;7.77;;;6.90;55.30;;;;;;4955793;29;20477;-91
2022/03/11 03:12:42;;;;;;;8.93;8.13;;;7.00;55.00;;;;;;4933013;29;20191;-90
2022/03/11 03:15:09;;;;;;;9.30;8.30;;;7.00;55.20;;;;;;4918122;29;20179;-90
2022/03/11 03:17:35;;;;;;;10.57;7.27;;;7.00;54.70;;;;;;4930473;29;20784;-91
2022/03/11 03:20:02;;;;;;;10.17;8.73;;;7.10;54.40;;;;;;4922230;29;20621;-90
2022/03/11 03:22:28;;;;;;;8.80;7.90;;;6.90;54.10;;;;;;4919006;29;20402;-90
2022/03/11 03:24:53;;;;;;;9.60;8.40;;;7.20;54.40;;;;;;4923924;29;20419;-90
2022/03/11 03:27:19;;;;;;;12.27;9.23;;;7.10;54.10;;;;;;4919470;29;20293;-89
2022/03/11 03:29:45;;;;;;;8.53;7.73;;;7.30;53.80;;;;;;4937264;29;20186;-92
2022/03/11 03:32:10;;;;;;;9.87;7.80;;;7.40;53.60;;;;;;4928746;29;20255;-89
2022/03/11 03:34:37;;;;;;;8.93;7.90;;;7.40;53.30;;;;;;4951265;29;20227;-91
2022/03/11 03:37:07;;;;;;;8.73;7.93;;;8.50;53.90;;;;;;4954524;29;20194;-91
2022/03/11 03:39:33;;;;;;;9.47;7.90;;;7.40;53.00;;;;;;4935383;29;20459;-91
2022/03/11 03:41:58;;;;;;;10.37;9.33;;;7.50;53.10;;;;;;4942067;29;20459;-91
2022/03/11 03:44:24;;;;;;;14.63;9.30;;;8.20;53.30;;;;;;4932836;29;20506;-90
2022/03/11 03:46:50;;;;;;;8.30;7.50;;;7.50;52.80;;;;;;4921315;29;20221;-90
2022/03/11 03:49:15;;;;;;;10.93;8.07;;;7.50;52.80;;;;;;4932601;29;20609;-91
2022/03/11 03:51:41;;;;;;;8.70;7.90;;;9.50;54.10;;;;;;4937344;29;20237;-90
2022/03/11 03:54:11;;;;;;;9.30;8.50;;;5.90;51.70;;;;;;4920222;29;20230;-91
2022/03/11 03:56:39;;;;;;;9.53;8.53;;;7.40;52.70;;;;;;4947419;29;20453;-91
2022/03/11 03:59:05;;;;;;;9.50;8.30;;;7.50;52.70;;;;;;4948022;29;20694;-91
2022/03/11 04:01:42;;;;;;;9.18;8.27;;;7.40;52.50;;;;;;4918852;29;20491;-90
2022/03/11 04:04:09;;;;;;;9.40;8.47;;;7.40;52.50;;;;;;4924032;29;20266;-90
2022/03/11 04:06:37;;;;;;;11.70;7.60;;;7.30;52.40;;;;;;4937609;29;20457;-91
2022/03/11 04:09:05;;;;;;;13.10;8.70;;;7.40;52.30;;;;;;4928008;29;20454;-91
2022/03/11 04:11:31;;;;;;;9.77;8.80;;;9.10;53.40;;;;;;4947994;29;20443;-90
2022/03/11 04:13:57;;;;;;;10.57;9.57;;;7.30;52.50;;;;;;4928828;29;20453;-90
2022/03/11 04:16:23;;;;;;;11.40;8.93;;;6.90;51.90;;;;;;4929818;29;20218;-90
2022/03/11 04:18:49;;;;;;;11.37;8.67;;;7.40;52.70;;;;;;4930995;29;20458;-89
2022/03/11 04:21:16;;;;;;;10.70;8.67;;;6.70;52.00;;;;;;4941049;29;20970;-90
2022/03/11 04:23:42;;;;;;;9.27;8.40;;;5.90;51.10;;;;;;4932640;29;20447;-90
2022/03/11 04:26:09;;;;;;;14.00;10.40;;;6.90;51.70;;;;;;4942551;29;20479;-88
2022/03/11 04:28:35;;;;;;;10.27;9.27;;;7.30;51.80;;;;;;4942511;29;20418;-91
2022/03/11 04:31:03;;;;;;;10.00;9.00;;;7.30;51.80;;;;;;4945446;29;20461;-90
2022/03/11 04:33:28;;;;;;;11.13;10.00;;;7.30;51.80;;;;;;4953106;29;20542;-90
2022/03/11 04:35:54;;;;;;;11.07;9.60;;;8.00;52.40;;;;;;4939570;29;20613;-91
2022/03/11 04:38:19;;;;;;;10.03;8.93;;;8.70;53.60;;;;;;4942460;29;20263;-90
2022/03/11 04:40:45;;;;;;;10.83;9.73;;;7.30;52.00;;;;;;4958672;29;20202;-91
2022/03/11 04:43:11;;;;;;;10.03;9.00;;;8.60;52.60;;;;;;4941825;29;20234;-90
2022/03/11 04:45:36;;;;;;;12.47;11.00;;;7.10;51.80;;;;;;4958765;28;20185;-90
2022/03/11 04:48:03;;;;;;;11.27;8.87;;;7.10;51.80;;;;;;4938641;29;20711;-90
2022/03/11 04:50:29;;;;;;;11.67;9.40;;;9.20;54.10;;;;;;4955854;29;20527;-91
2022/03/11 04:52:55;;;;;;;10.27;8.57;;;6.40;51.80;;;;;;4934984;29;20457;-91
2022/03/11 04:55:20;;;;;;;13.37;10.30;;;6.70;51.50;;;;;;4962589;29;20202;-89
2022/03/11 04:57:46;;;;;;;14.80;11.30;;;7.70;52.90;;;;;;4941017;29;20203;-91
2022/03/11 05:00:12;;;;;;;12.40;10.13;;;7.10;52.50;;;;;;4956448;29;20170;-91
2022/03/11 05:02:40;;;;;;;11.90;9.87;;;7.10;52.00;;;;;;4928566;29;20293;-91
2022/03/11 05:05:07;;;;;;;10.43;9.30;;;6.90;51.80;;;;;;4946710;29;20536;-91
2022/03/11 05:07:33;;;;;;;16.40;10.57;;;7.10;52.10;;;;;;4947053;29;20462;-93
2022/03/11 05:10:01;;;;;;;13.02;11.13;;;7.10;52.10;;;;;;4947172;29;20437;-91
2022/03/11 05:12:27;;;;;;;22.17;10.15;;;7.00;52.30;;;;;;4917034;29;20251;-90
2022/03/11 05:14:53;;;;;;;15.33;11.03;;;7.00;52.30;;;;;;4934528;29;20179;-90
2022/03/11 05:17:19;;;;;;;12.20;10.33;;;7.00;52.30;;;;;;4920127;29;20199;-90
2022/03/11 05:19:46;;;;;;;12.43;11.00;;;7.00;52.40;;;;;;4934578;29;20195;-91
2022/03/11 05:22:11;;;;;;;13.00;10.83;;;6.90;52.50;;;;;;4917831;29;20421;-91
2022/03/11 05:24:38;;;;;;;14.57;13.03;;;6.90;52.50;;;;;;4923248;29;20447;-89
2022/03/11 05:27:04;;;;;;;13.40;11.00;;;6.80;52.50;;;;;;4941484;29;20308;-91
2022/03/11 05:29:36;;;;;;;17.87;11.20;;;6.90;52.80;;;;;;4922685;29;20446;-91
2022/03/11 05:32:03;;;;;;;13.07;10.93;;;8.20;53.70;;;;;;4946600;29;20412;-90
2022/03/11 05:34:28;;;;;;;12.20;10.93;;;6.80;52.90;;;;;;4948815;29;20522;-91
2022/03/11 05:36:54;;;;;;;16.07;13.73;;;7.10;53.60;;;;;;4933390;29;20454;-90
2022/03/11 05:39:20;;;;;;;14.87;10.97;;;8.60;55.60;;;;;;4925672;29;20245;-91
2022/03/11 05:41:46;;;;;;;18.77;12.90;;;6.80;53.80;;;;;;4946811;29;20642;-91
2022/03/11 05:44:13;;;;;;;17.03;11.43;;;6.60;52.70;;;;;;4918678;29;20442;-91
2022/03/11 05:46:38;;;;;;;13.13;9.33;;;6.80;52.90;;;;;;4950075;29;20477;-90
2022/03/11 05:49:04;;;;;;;19.03;11.13;;;6.60;53.20;;;;;;4935544;29;20442;-92
2022/03/11 05:51:30;;;;;;;14.03;10.47;;;7.40;54.00;;;;;;4919161;29;20354;-92
2022/03/11 05:53:56;;;;;;;14.33;11.43;;;8.40;55.00;;;;;;4929653;29;20226;-91
2022/03/11 05:56:22;;;;;;;14.00;9.00;;;8.60;55.10;;;;;;4947292;29;20187;-91
2022/03/11 05:58:50;;;;;;;17.70;11.70;;;9.50;55.80;;;;;;4919694;29;20461;-91
2022/03/11 06:01:16;;;;;;;12.33;10.80;;;7.10;54.70;;;;;;4926469;29;20203;-91
2022/03/11 06:03:42;;;;;;;19.53;11.90;;;6.20;52.80;;;;;;4917367;29;20424;-91
2022/03/11 06:06:07;;;;;;;15.60;12.10;;;6.30;53.10;;;;;;4948739;29;20845;-91
2022/03/11 06:08:34;;;;;;;15.57;12.97;;;6.40;53.20;;;;;;4922447;29;20201;-90
2022/03/11 06:11:00;;;;;;;13.18;11.40;;;5.80;53.10;;;;;;4936785;29;20200;-91
2022/03/11 06:13:25;;;;;;;14.33;11.23;;;6.40;53.40;;;;;;4934705;29;20198;-91
2022/03/11 06:15:51;;;;;;;13.23;10.30;;;5.20;52.60;;;;;;4921674;29;20200;-91
2022/03/11 06:18:18;;;;;;;16.70;11.93;;;6.60;54.50;;;;;;4953593;29;20190;-92
2022/03/11 06:20:45;;;;;;;17.47;13.50;;;5.70;53.30;;;;;;4918296;29;20691;-91
2022/03/11 06:23:10;;;;;;;17.00;11.77;;;6.20;53.10;;;;;;4936484;29;20429;-90
2022/03/11 06:25:36;;;;;;;16.57;12.33;;;6.50;53.00;;;;;;4942601;29;21098;-90
2022/03/11 06:28:03;;;;;;;17.40;12.60;;;6.70;54.40;;;;;;4920937;29;20709;-91
2022/03/11 06:30:29;;;;;;;14.23;12.13;;;7.00;55.30;;;;;;4592818;29;10000236;-91
2022/03/11 06:32:55;;;;;;;23.33;14.43;;;6.50;54.00;;;;;;4932053;29;20309;-91
2022/03/11 06:35:21;;;;;;;17.40;12.47;;;7.80;55.80;;;;;;4913885;29;20465;-91
2022/03/11 06:37:50;;;;;;;14.57;12.60;;;6.50;54.30;;;;;;4941038;29;20514;-91
2022/03/11 06:40:16;;;;;;;18.00;14.05;;;7.50;53.90;;;;;;4937033;29;20199;-89
2022/03/11 06:42:45;;;;;;;15.20;13.00;;;9.10;55.80;;;;;;4948560;29;20198;-91
2022/03/11 06:45:15;;;;;;;15.50;12.97;;;7.60;53.90;;;;;;4950832;29;20473;-92
2022/03/11 06:47:41;;;;;;;19.70;13.30;;;6.70;53.10;;;;;;4945320;29;20485;-91
2022/03/11 06:50:07;;;;;;;18.67;12.27;;;7.50;54.10;;;;;;4929218;29;20414;-91
2022/03/11 06:52:33;;;;;;;18.93;13.57;;;8.20;54.20;;;;;;4951146;28;20466;-90
2022/03/11 06:54:59;;;;;;;16.63;13.40;;;9.60;55.40;;;;;;4954819;29;20960;-90
2022/03/11 06:57:34;;;;;;;18.50;13.57;;;7.60;53.80;;;;;;4940290;29;20215;-88
2022/03/11 07:00:00;;;;;;;18.77;14.43;;;9.80;54.30;;;;;;4953104;23;21174;-86
2022/03/11 07:02:26;;;;;;;19.90;14.83;;;7.70;49.70;;;;;;4925143;29;20459;-83
2022/03/11 07:04:52;;;;;;;17.83;14.53;;;11.80;51.30;;;;;;4933373;29;20521;-86
2022/03/11 07:07:18;;;;;;;20.97;13.87;;;10.30;49.20;;;;;;4941676;29;20494;-85
2022/03/11 07:09:46;;;;;;;16.30;14.50;;;10.70;47.90;;;;;;4951413;29;20225;-85
2022/03/11 07:12:12;;;;;;;18.10;14.90;;;11.10;46.50;;;;;;4921687;29;20183;-86
2022/03/11 07:14:38;;;;;;;22.70;15.50;;;11.80;47.50;;;;;;4948043;29;20440;-86
2022/03/11 07:17:04;;;;;;;16.57;14.87;;;12.40;43.60;;;;;;4574326;29;10000040;-86
2022/03/11 07:19:30;;;;;;;16.13;14.40;;;12.50;44.00;;;;;;4928751;29;20199;-87
2022/03/11 07:21:57;;;;;;;15.50;13.90;;;13.00;43.00;;;;;;4924575;29;20452;-86
2022/03/11 07:24:23;;;;;;;16.17;14.47;;;13.00;42.20;;;;;;4916705;29;20439;-87
2022/03/11 07:26:49;;;;;;;16.57;14.97;;;14.50;43.10;;;;;;4926242;29;20546;-86
2022/03/11 07:29:14;;;;;;;17.87;14.50;;;15.20;42.20;;;;;;4937906;29;20528;-85
2022/03/11 07:31:43;;;;;;;18.53;14.67;;;12.90;39.80;;;;;;4926198;29;20207;-86
2022/03/11 07:34:09;;;;;;;18.03;15.50;;;13.30;41.20;;;;;;4942315;29;20194;-87
2022/03/11 07:36:35;;;;;;;18.03;14.93;;;13.60;40.70;;;;;;4924737;29;20452;-83
2022/03/11 07:39:05;;;;;;;18.77;15.90;;;13.70;40.20;;;;;;4923836;29;20665;-85
2022/03/11 07:41:31;;;;;;;21.87;15.87;;;14.20;38.80;;;;;;4916628;29;20195;-85
2022/03/11 07:43:57;;;;;;;11.10;10.00;;;14.60;38.20;;;;;;4910727;29;20458;-86
2022/03/11 07:46:23;;;;;;;17.10;13.93;;;15.00;37.20;;;;;;4923922;29;20800;-85
2022/03/11 07:48:52;;;;;;;17.70;15.90;;;15.00;37.00;;;;;;4940991;29;20431;-86
2022/03/11 07:51:18;;;;;;;16.60;14.90;;;15.30;36.30;;;;;;4926772;29;20536;-85
2022/03/11 07:53:48;;;;;;;17.03;15.33;;;15.60;36.40;;;;;;4912196;29;20507;-86
2022/03/11 07:56:15;;;;;;;17.03;15.33;;;15.70;36.80;;;;;;4905061;29;20432;-84
2022/03/11 07:58:44;;;;;;;13.83;12.43;;;14.50;36.10;;;;;;4916641;29;20427;-86
2022/03/11 08:01:11;;;;;;;16.80;15.00;;;16.20;38.20;;;;;;4914319;29;20486;-85
2022/03/11 08:03:39;;;;;;;20.30;15.70;;;14.70;36.20;;;;;;4911208;29;20521;-86
2022/03/11 08:06:06;;;;;;;18.63;16.30;;;15.20;35.90;;;;;;4912485;29;20468;-85
2022/03/11 08:08:32;;;;;;;17.37;15.60;;;15.60;37.20;;;;;;4922759;29;20965;-86
2022/03/11 08:10:58;;;;;;;18.30;16.03;;;15.00;37.00;;;;;;4906925;29;20497;-87
2022/03/11 08:13:24;;;;;;;19.60;16.30;;;15.90;35.70;;;;;;4916802;29;20439;-85
2022/03/11 08:15:50;;;;;;;20.67;14.60;;;16.50;34.40;;;;;;4896024;29;20192;-85
2022/03/11 08:18:16;;;;;;;19.03;17.17;;;17.10;35.70;;;;;;4910977;29;20447;-86
2022/03/11 08:20:45;;;;;;;21.00;19.03;;;17.80;35.50;;;;;;4915450;29;20416;-84
2022/03/11 08:23:11;;;;;;;19.17;16.90;;;15.50;32.90;;;;;;4906576;29;20452;-82
2022/03/11 08:25:40;;;;;;;20.17;16.43;;;17.20;34.30;;;;;;4917456;29;20446;-84
2022/03/11 08:28:13;;;;;;;19.77;16.70;;;16.80;32.90;;;;;;4907265;29;20524;-84
2022/03/11 08:30:42;;;;;;;19.10;17.20;;;17.30;33.30;;;;;;4895049;29;20600;-87
2022/03/11 08:33:10;;;;;;;21.83;19.83;;;17.60;32.80;;;;;;4906739;29;20444;-85
2022/03/11 08:35:38;;;;;;;17.97;16.17;;;16.80;32.20;;;;;;4919801;29;20918;-87
2022/03/11 08:38:06;;;;;;;18.43;16.60;;;17.80;37.20;;;;;;4914834;29;20452;-87
2022/03/11 08:40:35;;;;;;;18.60;16.87;;;17.00;34.00;;;;;;4917816;29;20444;-85
2022/03/11 08:43:01;;;;;;;18.43;16.70;;;17.00;32.90;;;;;;4914455;29;20445;-86
2022/03/11 08:45:32;;;;;;;18.67;16.70;;;16.60;33.70;;;;;;4919869;29;20471;-86
2022/03/11 08:48:00;;;;;;;17.30;15.60;;;17.30;33.00;;;;;;4901902;29;20493;-86
2022/03/11 08:50:33;;;;;;;19.40;16.83;;;17.50;33.40;;;;;;4911665;29;21005;-87
2022/03/11 08:53:03;;;;;;;18.33;16.63;;;17.70;33.40;;;;;;4921023;29;20966;-87
2022/03/11 08:55:38;;;;;;;17.87;16.00;;;18.00;32.70;;;;;;4900775;29;20463;-86
2022/03/11 08:58:04;;;;;;;18.30;16.50;;;18.00;32.40;;;;;;4913083;29;20440;-83
2022/03/11 09:00:36;;;;;;;19.07;17.27;;;19.50;33.80;;;;;;4931478;29;20528;-84
2022/03/11 09:03:02;;;;;;;18.60;16.20;;;16.30;31.20;;;;;;4910745;29;20444;-87
2022/03/11 09:05:28;;;;;;;18.40;16.10;;;16.20;32.90;;;;;;4927065;29;20438;-85
2022/03/11 09:07:55;;;;;;;18.03;16.30;;;14.80;34.20;;;;;;4917825;29;20918;-86
2022/03/11 09:10:21;;;;;;;17.40;15.80;;;16.60;35.90;;;;;;4902647;29;20441;-84
2022/03/11 09:12:47;;;;;;;17.30;15.67;;;16.80;34.40;;;;;;4911739;29;20534;-87
2022/03/11 09:15:13;;;;;;;20.33;16.00;;;17.20;32.30;;;;;;4935328;29;20183;-85
2022/03/11 09:17:41;;;;;;;17.57;15.83;;;17.30;32.30;;;;;;4918092;29;20497;-85
2022/03/11 09:20:07;;;;;;;17.10;15.40;;;17.20;31.30;;;;;;4921247;29;20961;-83
2022/03/11 09:22:34;;;;;;;16.87;15.37;;;18.20;31.60;;;;;;4917890;29;20455;-86
2022/03/11 09:25:12;;;;;;;16.80;15.17;;;18.90;32.40;;;;;;4916691;29;20448;-88
2022/03/11 09:27:39;;;;;;;16.23;14.60;;;17.70;30.70;;;;;;4908353;29;20499;-87
2022/03/11 09:30:06;;;;;;;16.67;14.97;;;17.10;31.10;;;;;;4915010;29;20579;-88
2022/03/11 09:32:32;;;;;;;18.80;16.90;;;16.70;31.10;;;;;;4919631;29;20642;-89
2022/03/11 09:35:01;;;;;;;18.57;16.70;;;19.50;32.60;;;;;;4920500;29;20431;-88
2022/03/11 09:37:27;;;;;;;23.23;17.20;;;18.70;31.90;;;;;;4902343;29;20469;-85
2022/03/11 09:39:54;;;;;;;19.17;16.70;;;18.80;31.10;;;;;;4928856;29;20529;-88
2022/03/11 09:42:20;;;;;;;18.33;16.73;;;18.20;30.80;;;;;;4912589;29;20956;-87
2022/03/11 09:44:51;;;;;;;19.00;17.00;;;17.30;31.00;;;;;;4927354;29;20442;-87
2022/03/11 09:47:18;;;;;;;19.00;17.10;;;16.40;30.50;;;;;;4898951;29;20489;-88
2022/03/11 09:49:44;;;;;;;18.17;15.20;;;17.00;31.30;;;;;;4913911;29;20815;-85
2022/03/11 09:52:11;;;;;;;17.53;15.77;;;17.70;32.60;;;;;;4905954;29;20508;-83
2022/03/11 09:54:45;;;;;;;18.13;16.43;;;18.40;30.80;;;;;;4937859;29;20818;-87
2022/03/11 10:00:00;;;;;;;18.20;16.50;;;18.00;29.90;;;;;;5300411;23;20489;-86
2022/03/11 10:02:31;;;;;;;20.30;18.20;;;18.40;30.20;;;;;;4988412;28;20410;-85
2022/03/11 10:05:00;;;;;;;18.23;16.07;;;19.10;30.90;;;;;;4963354;29;20457;-83
2022/03/11 10:07:30;;;;;;;20.00;18.10;;;18.30;30.30;;;;;;4951626;28;20480;-88
2022/03/11 10:09:57;;;;;;;17.70;15.80;;;18.50;30.00;;;;;;4959510;28;20413;-88
2022/03/11 10:12:28;;;;;;;23.93;17.33;;;19.10;30.60;;;;;;4944552;29;20435;-87
2022/03/11 10:15:04;;;;;;;16.93;15.43;;;19.90;30.20;;;;;;4956382;29;21002;-87
2022/03/11 10:17:43;;;;;;;17.87;16.17;;;22.80;30.80;;;;;;4955249;28;20433;-82
2022/03/11 10:20:12;;;;;;;19.00;16.67;;;21.50;29.20;;;;;;4975058;28;20424;-88
2022/03/11 10:22:40;;;;;;;19.50;17.60;;;21.90;29.00;;;;;;4970045;28;20676;-87
2022/03/11 10:25:20;;;;;;;18.40;16.70;;;22.20;29.00;;;;;;4942650;29;20426;-87
2022/03/11 10:28:02;;;;;;;17.27;15.63;;;21.00;28.00;;;;;;4965460;28;20473;-88
2022/03/11 10:30:32;;;;;;;19.77;17.87;;;20.10;29.00;;;;;;4942811;29;20802;-84
2022/03/11 10:33:00;;;;;;;17.10;15.30;;;20.20;28.90;;;;;;4956743;29;20686;-87
2022/03/11 10:35:36;;;;;;;19.20;17.30;;;21.30;29.10;;;;;;4934921;29;20441;-87
2022/03/11 10:38:26;;;;;;;19.60;17.43;;;19.30;29.10;;;;;;4939005;29;20436;-87
2022/03/11 10:40:54;;;;;;;18.80;17.10;;;20.20;29.10;;;;;;4954329;28;20461;-85
2022/03/11 10:43:25;;;;;;;18.20;16.37;;;20.30;28.70;;;;;;4973462;28;20505;-86
2022/03/11 10:46:06;;;;;;;18.10;16.30;;;20.70;29.10;;;;;;4935728;29;20442;-87
2022/03/11 10:48:54;;;;;;;18.07;16.37;;;21.80;28.80;;;;;;4936487;28;20441;-87
2022/03/11 10:51:26;;;;;;;17.97;16.17;;;21.20;28.30;;;;;;4961267;28;20436;-86
2022/03/11 10:54:37;;;;;;;17.40;15.70;;;20.90;28.40;;;;;;4946837;29;20926;-86
2022/03/11 10:57:12;;;;;;;17.90;16.23;;;21.00;28.60;;;;;;4951080;28;20485;-85
2022/03/11 10:59:38;;;;;;;17.57;16.07;;;20.80;28.50;;;;;;4929275;29;20964;-86
2022/03/11 11:02:09;;;;;;;19.60;17.70;;;20.50;28.80;;;;;;4948634;29;20411;-87
2022/03/11 11:04:39;;;;;;;17.97;16.30;;;21.50;28.70;;;;;;4927358;29;20223;-87
2022/03/11 11:07:07;;;;;;;17.93;16.17;;;22.30;28.40;;;;;;4941465;29;20478;-88
2022/03/11 11:09:33;;;;;;;19.40;17.43;;;23.10;29.30;;;;;;4950182;29;20909;-84
2022/03/11 11:13:28;;;;;;;;;;;;;;;;;;;;;
2022/03/11 11:16:00;;;;;;;17.83;16.20;;;23.80;27.50;;;;;;4982184;23;20504;-87
2022/03/11 11:18:28;;;;;;;18.33;16.63;;;23.60;27.50;;;;;;4917231;29;20453;-86
2022/03/11 11:20:56;;;;;;;20.17;17.90;;;22.80;27.70;;;;;;4929645;29;20897;-85
2022/03/11 11:23:27;;;;;;;19.37;17.30;;;22.40;27.80;;;;;;4932262;29;20871;-86
2022/03/11 11:25:53;;;;;;;18.87;17.03;;;22.80;28.10;;;;;;4917338;29;20450;-86
2022/03/11 11:28:23;;;;;;;18.80;17.10;;;23.60;28.10;;;;;;4933850;29;20446;-86
2022/03/11 11:30:56;;;;;;;18.77;16.87;;;23.40;27.70;;;;;;4941503;29;20567;-86
2022/03/11 11:33:22;;;;;;;20.20;18.37;;;22.60;28.00;;;;;;4924693;29;20841;-84
2022/03/11 11:35:56;;;;;;;18.40;16.87;;;23.20;27.80;;;;;;4914190;29;20428;-86
2022/03/11 11:38:35;;;;;;;18.77;16.87;;;23.40;27.80;;;;;;4926815;29;20526;-86
2022/03/11 11:41:21;;;;;;;18.00;16.30;;;23.00;27.50;;;;;;4925803;29;20506;-85
2022/03/11 11:43:54;;;;;;;18.87;17.10;;;23.20;27.50;;;;;;4927061;29;20445;-86
2022/03/11 11:46:26;;;;;;;17.73;16.20;;;22.40;27.70;;;;;;4933159;29;20483;-87
2022/03/11 11:48:52;;;;;;;18.60;17.00;;;23.20;27.80;;;;;;4934541;29;20910;-87
2022/03/11 11:51:32;;;;;;;18.30;16.40;;;23.80;28.00;;;;;;4934779;29;20984;-85
2022/03/11 11:54:08;;;;;;;18.20;16.40;;;24.10;27.60;;;;;;4923510;29;20458;-85
2022/03/11 11:56:38;;;;;;;17.10;15.00;;;24.40;27.30;;;;;;4896520;29;20771;-86
2022/03/11 11:59:11;;;;;;;17.50;15.33;;;24.90;27.60;;;;;;4905846;29;20455;-86
2022/03/11 12:01:44;;;;;;;17.77;16.03;;;25.80;27.30;;;;;;4909744;29;20441;-82
2022/03/11 12:04:29;;;;;;;18.50;16.80;;;25.50;27.00;;;;;;4915854;29;20435;-87
2022/03/11 12:06:59;;;;;;;17.47;15.77;;;22.80;26.90;;;;;;4921937;29;20514;-87
2022/03/11 12:12:32;;;;;;;26.07;16.77;;;24.00;27.60;;;;;;4916828;29;20432;-88
2022/03/11 12:15:04;;;;;;;17.40;15.80;;;24.20;27.80;;;;;;4918579;29;20475;-86
2022/03/11 12:17:52;;;;;;;17.87;16.37;;;24.00;27.60;;;;;;4909216;29;20443;-83
2022/03/11 12:20:33;;;;;;;17.77;14.70;;;24.20;27.60;;;;;;4928455;29;20447;-85
2022/03/11 12:23:06;;;;;;;20.77;17.13;;;23.80;28.00;;;;;;4910080;29;20440;-84
2022/03/11 12:25:39;;;;;;;14.87;13.60;;;22.30;28.20;;;;;;4919037;29;20507;-83
2022/03/11 12:28:20;;;;;;;14.60;13.27;;;22.20;28.40;;;;;;4926284;29;20474;-84
2022/03/11 12:30:49;;;;;;;14.73;13.13;;;23.20;28.40;;;;;;4904852;29;20481;-85
2022/03/11 12:33:16;;;;;;;15.13;13.73;;;23.10;28.20;;;;;;4919759;29;20440;-86
2022/03/11 12:35:43;;;;;;;17.10;15.60;;;22.50;28.80;;;;;;4894236;29;20456;-84
2022/03/11 12:38:18;;;;;;;16.07;14.50;;;22.30;28.30;;;;;;4896255;29;20432;-85
2022/03/11 12:40:45;;;;;;;15.23;13.87;;;22.90;28.90;;;;;;4922157;29;20441;-84
2022/03/11 12:43:12;;;;;;;15.43;13.90;;;22.70;28.80;;;;;;4907401;29;20933;-84
2022/03/11 12:45:49;;;;;;;14.80;13.30;;;22.80;28.70;;;;;;4900281;29;20514;-85
2022/03/11 12:48:21;;;;;;;15.57;14.17;;;22.20;28.50;;;;;;4916722;29;20457;-84
2022/03/11 12:50:47;;;;;;;14.47;13.23;;;22.90;28.60;;;;;;4914474;29;20424;-84
2022/03/11 12:58:32;;;;;;;15.37;14.07;;;23.40;28.30;;;;;;4904916;26;20485;-89
2022/03/11 13:01:38;;;;;;;;;;;;;;;;;;;;;